sensor_id;sensor_type;location;lat;lon;timestamp;P1;durP1;ratioP1;P2;durP2;ratioP2
12248;SDS011;6187;50.778;6.142;2023-10-19T00:00:31;0.80;;;0.80;;
12248;SDS011;6187;50.778;6.142;2023-10-19T00:03:02;0.80;;;0.80;;
12248;SDS011;6187;50.778;6.142;2023-10-19T00:05:31;0.70;;;0.70;;
12248;SDS011;6187;50.778;6.142;2023-10-19T00:07:59;0.80;;;0.80;;
12248;SDS011;6187;50.778;6.142;2023-10-19T00:10:32;0.73;;;0.70;;
12248;SDS011;6187;50.778;6.142;2023-10-19T00:13:02;0.70;;;0.70;;
12248;SDS011;6187;50.778;6.142;2023-10-19T00:15:32;0.80;;;0.77;;
12248;SDS011;6187;50.778;6.142;2023-10-19T00:18:03;1.03;;;0.80;;
12248;SDS011;6187;50.778;6.142;2023-10-19T00:20:39;0.80;;;0.80;;
12248;SDS011;6187;50.778;6.142;2023-10-19T00:23:18;0.70;;;0.70;;
12248;SDS011;6187;50.778;6.142;2023-10-19T00:25:52;0.80;;;0.80;;
12248;SDS011;6187;50.778;6.142;2023-10-19T00:28:20;0.80;;;0.80;;
12248;SDS011;6187;50.778;6.142;2023-10-19T00:30:49;1.60;;;0.93;;
12248;SDS011;6187;50.778;6.142;2023-10-19T00:33:20;1.20;;;0.80;;
12248;SDS011;6187;50.778;6.142;2023-10-19T00:35:55;0.83;;;0.73;;
12248;SDS011;6187;50.778;6.142;2023-10-19T00:38:27;0.93;;;0.60;;
12248;SDS011;6187;50.778;6.142;2023-10-19T00:41:06;0.60;;;0.60;;
12248;SDS011;6187;50.778;6.142;2023-10-19T00:43:38;1.27;;;0.70;;
12248;SDS011;6187;50.778;6.142;2023-10-19T00:46:11;0.80;;;0.80;;
12248;SDS011;6187;50.778;6.142;2023-10-19T00:48:53;0.50;;;0.50;;
12248;SDS011;6187;50.778;6.142;2023-10-19T00:51:23;0.50;;;0.50;;
12248;SDS011;6187;50.778;6.142;2023-10-19T00:54:04;0.70;;;0.70;;
12248;SDS011;6187;50.778;6.142;2023-10-19T00:56:36;1.20;;;0.73;;
12248;SDS011;6187;50.778;6.142;2023-10-19T00:59:07;2.17;;;0.60;;
12248;SDS011;6187;50.778;6.142;2023-10-19T01:01:41;0.60;;;0.50;;
12248;SDS011;6187;50.778;6.142;2023-10-19T01:04:13;0.60;;;0.60;;
12248;SDS011;6187;50.778;6.142;2023-10-19T01:06:47;0.73;;;0.70;;
12248;SDS011;6187;50.778;6.142;2023-10-19T01:09:27;1.10;;;0.80;;
12248;SDS011;6187;50.778;6.142;2023-10-19T01:12:01;1.43;;;0.60;;
12248;SDS011;6187;50.778;6.142;2023-10-19T01:15:00;0.50;;;0.50;;
12248;SDS011;6187;50.778;6.142;2023-10-19T01:17:32;0.40;;;0.40;;
12248;SDS011;6187;50.778;6.142;2023-10-19T01:20:08;0.37;;;0.37;;
12248;SDS011;6187;50.778;6.142;2023-10-19T01:22:55;0.67;;;0.63;;
12248;SDS011;6187;50.778;6.142;2023-10-19T01:25:44;0.73;;;0.47;;
12248;SDS011;6187;50.778;6.142;2023-10-19T01:28:16;1.23;;;0.50;;
12248;SDS011;6187;50.778;6.142;2023-10-19T01:30:45;1.80;;;0.50;;
12248;SDS011;6187;50.778;6.142;2023-10-19T01:33:18;1.27;;;0.53;;
12248;SDS011;6187;50.778;6.142;2023-10-19T01:35:47;0.47;;;0.47;;
12248;SDS011;6187;50.778;6.142;2023-10-19T01:38:34;0.53;;;0.50;;
12248;SDS011;6187;50.778;6.142;2023-10-19T01:41:03;0.93;;;0.53;;
12248;SDS011;6187;50.778;6.142;2023-10-19T01:43:33;1.30;;;0.40;;
12248;SDS011;6187;50.778;6.142;2023-10-19T01:46:08;0.87;;;0.50;;
12248;SDS011;6187;50.778;6.142;2023-10-19T01:48:39;0.50;;;0.50;;
12248;SDS011;6187;50.778;6.142;2023-10-19T01:51:09;0.40;;;0.40;;
12248;SDS011;6187;50.778;6.142;2023-10-19T01:53:38;1.23;;;0.70;;
12248;SDS011;6187;50.778;6.142;2023-10-19T01:56:10;2.30;;;0.73;;
12248;SDS011;6187;50.778;6.142;2023-10-19T01:58:38;0.60;;;0.50;;
12248;SDS011;6187;50.778;6.142;2023-10-19T02:01:07;0.50;;;0.50;;
12248;SDS011;6187;50.778;6.142;2023-10-19T02:03:42;0.90;;;0.60;;
12248;SDS011;6187;50.778;6.142;2023-10-19T02:06:10;0.77;;;0.50;;
12248;SDS011;6187;50.778;6.142;2023-10-19T02:08:48;1.40;;;0.73;;
12248;SDS011;6187;50.778;6.142;2023-10-19T02:11:19;0.63;;;0.40;;
12248;SDS011;6187;50.778;6.142;2023-10-19T02:13:48;2.20;;;0.70;;
12248;SDS011;6187;50.778;6.142;2023-10-19T02:16:18;0.43;;;0.43;;
12248;SDS011;6187;50.778;6.142;2023-10-19T02:18:49;1.47;;;0.47;;
12248;SDS011;6187;50.778;6.142;2023-10-19T02:21:18;1.67;;;0.60;;
12248;SDS011;6187;50.778;6.142;2023-10-19T02:23:49;0.83;;;0.50;;
12248;SDS011;6187;50.778;6.142;2023-10-19T02:26:18;1.37;;;0.50;;
12248;SDS011;6187;50.778;6.142;2023-10-19T02:28:46;1.00;;;0.63;;
12248;SDS011;6187;50.778;6.142;2023-10-19T02:31:17;0.60;;;0.60;;
12248;SDS011;6187;50.778;6.142;2023-10-19T02:33:47;1.73;;;0.53;;
12248;SDS011;6187;50.778;6.142;2023-10-19T02:36:18;0.40;;;0.40;;
12248;SDS011;6187;50.778;6.142;2023-10-19T02:38:47;0.60;;;0.40;;
12248;SDS011;6187;50.778;6.142;2023-10-19T02:41:20;0.60;;;0.60;;
12248;SDS011;6187;50.778;6.142;2023-10-19T02:43:50;0.43;;;0.40;;
12248;SDS011;6187;50.778;6.142;2023-10-19T02:46:18;1.07;;;0.60;;
12248;SDS011;6187;50.778;6.142;2023-10-19T02:48:47;0.70;;;0.50;;
12248;SDS011;6187;50.778;6.142;2023-10-19T02:51:16;0.70;;;0.70;;
12248;SDS011;6187;50.778;6.142;2023-10-19T02:53:45;2.47;;;0.60;;
12248;SDS011;6187;50.778;6.142;2023-10-19T02:56:15;1.30;;;0.70;;
12248;SDS011;6187;50.778;6.142;2023-10-19T02:58:45;0.40;;;0.40;;
12248;SDS011;6187;50.778;6.142;2023-10-19T03:01:17;1.03;;;0.50;;
12248;SDS011;6187;50.778;6.142;2023-10-19T03:03:49;0.83;;;0.50;;
12248;SDS011;6187;50.778;6.142;2023-10-19T03:06:20;1.60;;;0.47;;
12248;SDS011;6187;50.778;6.142;2023-10-19T03:08:48;0.43;;;0.43;;
12248;SDS011;6187;50.778;6.142;2023-10-19T03:11:24;0.53;;;0.53;;
12248;SDS011;6187;50.778;6.142;2023-10-19T03:13:53;0.70;;;0.70;;
12248;SDS011;6187;50.778;6.142;2023-10-19T03:16:23;0.60;;;0.60;;
12248;SDS011;6187;50.778;6.142;2023-10-19T03:18:54;0.83;;;0.50;;
12248;SDS011;6187;50.778;6.142;2023-10-19T03:21:23;2.23;;;0.80;;
12248;SDS011;6187;50.778;6.142;2023-10-19T03:23:53;0.47;;;0.40;;
12248;SDS011;6187;50.778;6.142;2023-10-19T03:26:23;1.27;;;0.60;;
12248;SDS011;6187;50.778;6.142;2023-10-19T03:28:58;1.17;;;0.50;;
12248;SDS011;6187;50.778;6.142;2023-10-19T03:31:30;1.20;;;0.50;;
12248;SDS011;6187;50.778;6.142;2023-10-19T03:33:59;0.70;;;0.60;;
12248;SDS011;6187;50.778;6.142;2023-10-19T03:36:31;0.90;;;0.60;;
12248;SDS011;6187;50.778;6.142;2023-10-19T03:39:00;0.83;;;0.40;;
12248;SDS011;6187;50.778;6.142;2023-10-19T03:41:38;0.70;;;0.60;;
12248;SDS011;6187;50.778;6.142;2023-10-19T03:44:10;0.50;;;0.50;;
12248;SDS011;6187;50.778;6.142;2023-10-19T03:46:45;0.47;;;0.47;;
12248;SDS011;6187;50.778;6.142;2023-10-19T03:49:22;0.83;;;0.70;;
12248;SDS011;6187;50.778;6.142;2023-10-19T03:51:54;0.70;;;0.50;;
12248;SDS011;6187;50.778;6.142;2023-10-19T03:54:27;0.77;;;0.50;;
12248;SDS011;6187;50.778;6.142;2023-10-19T03:56:59;0.30;;;0.30;;
12248;SDS011;6187;50.778;6.142;2023-10-19T03:59:34;0.87;;;0.70;;
12248;SDS011;6187;50.778;6.142;2023-10-19T04:02:04;0.57;;;0.40;;
12248;SDS011;6187;50.778;6.142;2023-10-19T04:04:37;0.50;;;0.50;;
12248;SDS011;6187;50.778;6.142;2023-10-19T04:07:10;0.33;;;0.33;;
12248;SDS011;6187;50.778;6.142;2023-10-19T04:09:45;0.50;;;0.50;;
12248;SDS011;6187;50.778;6.142;2023-10-19T04:12:26;1.57;;;0.40;;
12248;SDS011;6187;50.778;6.142;2023-10-19T04:14:58;0.43;;;0.43;;
12248;SDS011;6187;50.778;6.142;2023-10-19T04:17:36;0.50;;;0.50;;
12248;SDS011;6187;50.778;6.142;2023-10-19T04:20:06;0.30;;;0.30;;
12248;SDS011;6187;50.778;6.142;2023-10-19T04:22:52;0.93;;;0.63;;
12248;SDS011;6187;50.778;6.142;2023-10-19T04:25:21;0.40;;;0.40;;
12248;SDS011;6187;50.778;6.142;2023-10-19T04:27:52;0.37;;;0.37;;
12248;SDS011;6187;50.778;6.142;2023-10-19T04:30:25;0.97;;;0.40;;
12248;SDS011;6187;50.778;6.142;2023-10-19T04:32:54;0.57;;;0.57;;
12248;SDS011;6187;50.778;6.142;2023-10-19T04:35:25;0.70;;;0.53;;
12248;SDS011;6187;50.778;6.142;2023-10-19T04:37:57;0.30;;;0.30;;
12248;SDS011;6187;50.778;6.142;2023-10-19T04:40:26;0.57;;;0.50;;
12248;SDS011;6187;50.778;6.142;2023-10-19T04:42:55;0.63;;;0.60;;
12248;SDS011;6187;50.778;6.142;2023-10-19T04:45:25;0.83;;;0.60;;
12248;SDS011;6187;50.778;6.142;2023-10-19T04:47:56;0.70;;;0.70;;
12248;SDS011;6187;50.778;6.142;2023-10-19T04:50:24;0.50;;;0.50;;
12248;SDS011;6187;50.778;6.142;2023-10-19T04:52:53;1.13;;;0.40;;
12248;SDS011;6187;50.778;6.142;2023-10-19T04:55:22;0.50;;;0.43;;
12248;SDS011;6187;50.778;6.142;2023-10-19T04:57:51;1.40;;;0.70;;
12248;SDS011;6187;50.778;6.142;2023-10-19T05:00:19;1.23;;;0.40;;
12248;SDS011;6187;50.778;6.142;2023-10-19T05:02:49;0.50;;;0.50;;
12248;SDS011;6187;50.778;6.142;2023-10-19T05:05:20;1.13;;;0.50;;
12248;SDS011;6187;50.778;6.142;2023-10-19T05:07:49;0.33;;;0.33;;
12248;SDS011;6187;50.778;6.142;2023-10-19T05:10:17;0.93;;;0.47;;
12248;SDS011;6187;50.778;6.142;2023-10-19T05:12:46;0.77;;;0.57;;
12248;SDS011;6187;50.778;6.142;2023-10-19T05:15:15;0.70;;;0.60;;
12248;SDS011;6187;50.778;6.142;2023-10-19T05:17:45;0.57;;;0.50;;
12248;SDS011;6187;50.778;6.142;2023-10-19T05:20:15;1.10;;;0.50;;
12248;SDS011;6187;50.778;6.142;2023-10-19T05:22:45;0.53;;;0.50;;
12248;SDS011;6187;50.778;6.142;2023-10-19T05:25:13;0.63;;;0.57;;
12248;SDS011;6187;50.778;6.142;2023-10-19T05:27:42;1.17;;;0.63;;
12248;SDS011;6187;50.778;6.142;2023-10-19T05:30:12;1.70;;;0.70;;
12248;SDS011;6187;50.778;6.142;2023-10-19T05:32:41;0.93;;;0.80;;
12248;SDS011;6187;50.778;6.142;2023-10-19T05:35:10;0.60;;;0.60;;
12248;SDS011;6187;50.778;6.142;2023-10-19T05:37:41;0.80;;;0.60;;
12248;SDS011;6187;50.778;6.142;2023-10-19T05:40:10;1.10;;;0.70;;
12248;SDS011;6187;50.778;6.142;2023-10-19T05:42:41;1.57;;;0.70;;
12248;SDS011;6187;50.778;6.142;2023-10-19T05:45:10;0.63;;;0.63;;
12248;SDS011;6187;50.778;6.142;2023-10-19T05:47:40;2.43;;;0.70;;
12248;SDS011;6187;50.778;6.142;2023-10-19T05:50:09;2.40;;;0.90;;
12248;SDS011;6187;50.778;6.142;2023-10-19T05:52:42;1.00;;;0.90;;
12248;SDS011;6187;50.778;6.142;2023-10-19T05:55:11;1.47;;;0.80;;
12248;SDS011;6187;50.778;6.142;2023-10-19T05:57:40;1.40;;;0.70;;
12248;SDS011;6187;50.778;6.142;2023-10-19T06:00:09;0.70;;;0.70;;
12248;SDS011;6187;50.778;6.142;2023-10-19T06:02:41;1.43;;;0.70;;
12248;SDS011;6187;50.778;6.142;2023-10-19T06:05:12;1.23;;;0.70;;
12248;SDS011;6187;50.778;6.142;2023-10-19T06:07:44;0.87;;;0.70;;
12248;SDS011;6187;50.778;6.142;2023-10-19T06:10:14;0.77;;;0.60;;
12248;SDS011;6187;50.778;6.142;2023-10-19T06:12:47;2.07;;;0.97;;
12248;SDS011;6187;50.778;6.142;2023-10-19T06:15:17;0.90;;;0.80;;
12248;SDS011;6187;50.778;6.142;2023-10-19T06:17:47;1.43;;;0.60;;
12248;SDS011;6187;50.778;6.142;2023-10-19T06:20:16;3.50;;;0.90;;
12248;SDS011;6187;50.778;6.142;2023-10-19T06:22:52;1.10;;;0.60;;
12248;SDS011;6187;50.778;6.142;2023-10-19T06:25:23;1.13;;;0.90;;
12248;SDS011;6187;50.778;6.142;2023-10-19T06:27:52;0.80;;;0.70;;
12248;SDS011;6187;50.778;6.142;2023-10-19T06:30:24;1.00;;;0.70;;
12248;SDS011;6187;50.778;6.142;2023-10-19T06:32:53;1.43;;;0.80;;
12248;SDS011;6187;50.778;6.142;2023-10-19T06:35:22;0.73;;;0.53;;
12248;SDS011;6187;50.778;6.142;2023-10-19T06:37:52;0.87;;;0.70;;
12248;SDS011;6187;50.778;6.142;2023-10-19T06:40:22;0.80;;;0.53;;
12248;SDS011;6187;50.778;6.142;2023-10-19T06:42:50;0.80;;;0.60;;
12248;SDS011;6187;50.778;6.142;2023-10-19T06:45:19;1.77;;;0.90;;
12248;SDS011;6187;50.778;6.142;2023-10-19T06:47:48;1.00;;;0.87;;
12248;SDS011;6187;50.778;6.142;2023-10-19T06:50:17;1.93;;;1.00;;
12248;SDS011;6187;50.778;6.142;2023-10-19T06:52:46;1.13;;;0.83;;
12248;SDS011;6187;50.778;6.142;2023-10-19T06:55:17;2.40;;;0.90;;
12248;SDS011;6187;50.778;6.142;2023-10-19T06:57:47;0.60;;;0.60;;
12248;SDS011;6187;50.778;6.142;2023-10-19T07:00:17;1.70;;;0.80;;
12248;SDS011;6187;50.778;6.142;2023-10-19T07:02:47;1.47;;;0.70;;
12248;SDS011;6187;50.778;6.142;2023-10-19T07:05:17;1.87;;;0.83;;
12248;SDS011;6187;50.778;6.142;2023-10-19T07:07:48;1.37;;;0.80;;
12248;SDS011;6187;50.778;6.142;2023-10-19T07:10:19;1.00;;;0.70;;
12248;SDS011;6187;50.778;6.142;2023-10-19T07:12:51;1.57;;;0.80;;
12248;SDS011;6187;50.778;6.142;2023-10-19T07:15:20;1.97;;;1.00;;
12248;SDS011;6187;50.778;6.142;2023-10-19T07:17:50;1.60;;;0.90;;
12248;SDS011;6187;50.778;6.142;2023-10-19T07:20:21;1.10;;;0.70;;
12248;SDS011;6187;50.778;6.142;2023-10-19T07:22:53;4.03;;;0.90;;
12248;SDS011;6187;50.778;6.142;2023-10-19T07:25:23;2.87;;;1.07;;
12248;SDS011;6187;50.778;6.142;2023-10-19T07:27:53;0.97;;;0.93;;
12248;SDS011;6187;50.778;6.142;2023-10-19T07:30:22;1.03;;;0.80;;
12248;SDS011;6187;50.778;6.142;2023-10-19T07:32:53;2.37;;;1.03;;
12248;SDS011;6187;50.778;6.142;2023-10-19T07:35:25;1.33;;;1.00;;
12248;SDS011;6187;50.778;6.142;2023-10-19T07:37:54;3.03;;;0.80;;
12248;SDS011;6187;50.778;6.142;2023-10-19T07:40:25;5.10;;;1.00;;
12248;SDS011;6187;50.778;6.142;2023-10-19T07:42:54;2.37;;;0.77;;
12248;SDS011;6187;50.778;6.142;2023-10-19T07:45:22;2.23;;;1.33;;
12248;SDS011;6187;50.778;6.142;2023-10-19T07:47:52;1.60;;;0.87;;
12248;SDS011;6187;50.778;6.142;2023-10-19T07:50:21;1.87;;;0.73;;
12248;SDS011;6187;50.778;6.142;2023-10-19T07:52:50;1.47;;;1.00;;
12248;SDS011;6187;50.778;6.142;2023-10-19T07:55:21;1.67;;;0.83;;
12248;SDS011;6187;50.778;6.142;2023-10-19T07:57:52;2.63;;;0.97;;
12248;SDS011;6187;50.778;6.142;2023-10-19T08:00:21;2.73;;;0.90;;
12248;SDS011;6187;50.778;6.142;2023-10-19T08:02:51;1.80;;;0.70;;
12248;SDS011;6187;50.778;6.142;2023-10-19T08:05:20;3.90;;;0.97;;
12248;SDS011;6187;50.778;6.142;2023-10-19T08:07:49;3.00;;;1.00;;
12248;SDS011;6187;50.778;6.142;2023-10-19T08:10:19;2.30;;;1.00;;
12248;SDS011;6187;50.778;6.142;2023-10-19T08:12:48;3.20;;;1.40;;
12248;SDS011;6187;50.778;6.142;2023-10-19T08:15:19;3.40;;;1.00;;
12248;SDS011;6187;50.778;6.142;2023-10-19T08:17:48;2.13;;;0.97;;
12248;SDS011;6187;50.778;6.142;2023-10-19T08:20:17;2.57;;;0.90;;
12248;SDS011;6187;50.778;6.142;2023-10-19T08:22:52;1.50;;;0.70;;
12248;SDS011;6187;50.778;6.142;2023-10-19T08:25:24;3.70;;;1.03;;
12248;SDS011;6187;50.778;6.142;2023-10-19T08:28:02;2.13;;;1.00;;
12248;SDS011;6187;50.778;6.142;2023-10-19T08:30:32;1.20;;;0.80;;
12248;SDS011;6187;50.778;6.142;2023-10-19T08:33:01;2.47;;;1.00;;
12248;SDS011;6187;50.778;6.142;2023-10-19T08:35:30;1.33;;;0.80;;
12248;SDS011;6187;50.778;6.142;2023-10-19T08:37:59;4.10;;;1.00;;
12248;SDS011;6187;50.778;6.142;2023-10-19T08:40:30;1.90;;;0.77;;
12248;SDS011;6187;50.778;6.142;2023-10-19T08:42:59;3.30;;;1.03;;
12248;SDS011;6187;50.778;6.142;2023-10-19T08:45:27;2.00;;;0.83;;
12248;SDS011;6187;50.778;6.142;2023-10-19T08:47:58;2.50;;;1.10;;
12248;SDS011;6187;50.778;6.142;2023-10-19T08:50:29;3.17;;;0.90;;
12248;SDS011;6187;50.778;6.142;2023-10-19T08:52:58;1.17;;;0.70;;
12248;SDS011;6187;50.778;6.142;2023-10-19T08:55:27;2.30;;;0.97;;
12248;SDS011;6187;50.778;6.142;2023-10-19T08:58:15;1.33;;;0.70;;
12248;SDS011;6187;50.778;6.142;2023-10-19T09:00:46;1.87;;;1.00;;
12248;SDS011;6187;50.778;6.142;2023-10-19T09:03:17;2.43;;;0.73;;
12248;SDS011;6187;50.778;6.142;2023-10-19T09:05:46;2.23;;;1.30;;
12248;SDS011;6187;50.778;6.142;2023-10-19T09:08:15;2.10;;;0.90;;
12248;SDS011;6187;50.778;6.142;2023-10-19T09:10:45;2.63;;;0.80;;
12248;SDS011;6187;50.778;6.142;2023-10-19T09:13:15;2.60;;;0.80;;
12248;SDS011;6187;50.778;6.142;2023-10-19T09:15:47;3.03;;;1.00;;
12248;SDS011;6187;50.778;6.142;2023-10-19T09:18:18;2.90;;;1.30;;
12248;SDS011;6187;50.778;6.142;2023-10-19T09:20:48;2.27;;;1.07;;
12248;SDS011;6187;50.778;6.142;2023-10-19T09:23:20;2.63;;;1.23;;
12248;SDS011;6187;50.778;6.142;2023-10-19T09:25:50;2.80;;;1.10;;
12248;SDS011;6187;50.778;6.142;2023-10-19T09:28:20;2.07;;;1.00;;
12248;SDS011;6187;50.778;6.142;2023-10-19T09:30:50;1.03;;;0.83;;
12248;SDS011;6187;50.778;6.142;2023-10-19T09:33:22;3.37;;;1.20;;
12248;SDS011;6187;50.778;6.142;2023-10-19T09:35:51;2.03;;;0.93;;
12248;SDS011;6187;50.778;6.142;2023-10-19T09:38:22;0.93;;;0.80;;
12248;SDS011;6187;50.778;6.142;2023-10-19T09:40:53;1.43;;;0.90;;
12248;SDS011;6187;50.778;6.142;2023-10-19T09:43:22;1.77;;;0.90;;
12248;SDS011;6187;50.778;6.142;2023-10-19T09:45:53;3.73;;;1.13;;
12248;SDS011;6187;50.778;6.142;2023-10-19T09:48:28;2.50;;;1.20;;
12248;SDS011;6187;50.778;6.142;2023-10-19T09:51:02;2.63;;;1.10;;
12248;SDS011;6187;50.778;6.142;2023-10-19T09:53:32;5.00;;;1.47;;
12248;SDS011;6187;50.778;6.142;2023-10-19T09:56:01;2.17;;;0.70;;
12248;SDS011;6187;50.778;6.142;2023-10-19T09:58:40;2.33;;;1.30;;
12248;SDS011;6187;50.778;6.142;2023-10-19T10:01:09;2.70;;;1.10;;
12248;SDS011;6187;50.778;6.142;2023-10-19T10:03:44;3.60;;;1.10;;
12248;SDS011;6187;50.778;6.142;2023-10-19T10:06:13;1.70;;;0.80;;
12248;SDS011;6187;50.778;6.142;2023-10-19T10:08:43;2.63;;;1.00;;
12248;SDS011;6187;50.778;6.142;2023-10-19T10:11:21;2.37;;;1.07;;
12248;SDS011;6187;50.778;6.142;2023-10-19T10:13:52;2.77;;;1.10;;
12248;SDS011;6187;50.778;6.142;2023-10-19T10:16:22;1.10;;;0.80;;
12248;SDS011;6187;50.778;6.142;2023-10-19T10:18:55;2.53;;;1.17;;
12248;SDS011;6187;50.778;6.142;2023-10-19T10:21:26;1.93;;;0.93;;
12248;SDS011;6187;50.778;6.142;2023-10-19T10:23:56;3.60;;;1.10;;
12248;SDS011;6187;50.778;6.142;2023-10-19T10:26:26;1.50;;;0.90;;
12248;SDS011;6187;50.778;6.142;2023-10-19T10:29:09;1.97;;;0.90;;
12248;SDS011;6187;50.778;6.142;2023-10-19T10:31:41;2.47;;;0.83;;
12248;SDS011;6187;50.778;6.142;2023-10-19T10:34:11;1.53;;;0.80;;
12248;SDS011;6187;50.778;6.142;2023-10-19T10:36:59;2.67;;;1.30;;
12248;SDS011;6187;50.778;6.142;2023-10-19T10:39:29;2.83;;;1.07;;
12248;SDS011;6187;50.778;6.142;2023-10-19T10:41:58;1.30;;;1.00;;
12248;SDS011;6187;50.778;6.142;2023-10-19T10:44:37;2.90;;;1.10;;
12248;SDS011;6187;50.778;6.142;2023-10-19T10:47:06;3.70;;;1.07;;
12248;SDS011;6187;50.778;6.142;2023-10-19T10:49:49;1.83;;;1.00;;
12248;SDS011;6187;50.778;6.142;2023-10-19T10:52:25;3.87;;;1.13;;
12248;SDS011;6187;50.778;6.142;2023-10-19T10:54:56;4.50;;;1.00;;
12248;SDS011;6187;50.778;6.142;2023-10-19T10:57:30;2.23;;;1.13;;
12248;SDS011;6187;50.778;6.142;2023-10-19T11:00:03;2.03;;;1.03;;
12248;SDS011;6187;50.778;6.142;2023-10-19T11:02:34;1.80;;;0.93;;
12248;SDS011;6187;50.778;6.142;2023-10-19T11:05:04;1.70;;;0.77;;
12248;SDS011;6187;50.778;6.142;2023-10-19T11:07:38;2.60;;;0.90;;
12248;SDS011;6187;50.778;6.142;2023-10-19T11:10:07;1.27;;;0.90;;
12248;SDS011;6187;50.778;6.142;2023-10-19T11:12:36;2.20;;;0.80;;
12248;SDS011;6187;50.778;6.142;2023-10-19T11:15:05;1.87;;;0.80;;
12248;SDS011;6187;50.778;6.142;2023-10-19T11:17:42;4.03;;;1.30;;
12248;SDS011;6187;50.778;6.142;2023-10-19T11:20:20;2.60;;;1.00;;
12248;SDS011;6187;50.778;6.142;2023-10-19T11:22:49;0.70;;;0.70;;
12248;SDS011;6187;50.778;6.142;2023-10-19T11:25:18;2.13;;;0.87;;
12248;SDS011;6187;50.778;6.142;2023-10-19T11:27:47;1.63;;;0.80;;
12248;SDS011;6187;50.778;6.142;2023-10-19T11:30:22;3.00;;;0.97;;
12248;SDS011;6187;50.778;6.142;2023-10-19T11:32:51;2.00;;;1.07;;
12248;SDS011;6187;50.778;6.142;2023-10-19T11:35:25;1.83;;;0.87;;
12248;SDS011;6187;50.778;6.142;2023-10-19T11:37:55;1.20;;;1.00;;
12248;SDS011;6187;50.778;6.142;2023-10-19T11:40:24;2.63;;;0.83;;
12248;SDS011;6187;50.778;6.142;2023-10-19T11:42:53;1.87;;;1.00;;
12248;SDS011;6187;50.778;6.142;2023-10-19T11:45:23;2.57;;;0.83;;
12248;SDS011;6187;50.778;6.142;2023-10-19T11:47:52;2.90;;;1.00;;
12248;SDS011;6187;50.778;6.142;2023-10-19T11:50:21;3.10;;;1.20;;
12248;SDS011;6187;50.778;6.142;2023-10-19T11:52:52;3.13;;;0.93;;
12248;SDS011;6187;50.778;6.142;2023-10-19T11:55:23;1.17;;;1.03;;
12248;SDS011;6187;50.778;6.142;2023-10-19T11:57:52;2.27;;;1.17;;
12248;SDS011;6187;50.778;6.142;2023-10-19T12:00:20;1.93;;;1.00;;
12248;SDS011;6187;50.778;6.142;2023-10-19T12:02:51;1.63;;;1.07;;
12248;SDS011;6187;50.778;6.142;2023-10-19T12:05:20;2.07;;;1.00;;
12248;SDS011;6187;50.778;6.142;2023-10-19T12:07:50;2.00;;;0.90;;
12248;SDS011;6187;50.778;6.142;2023-10-19T12:10:20;2.03;;;0.90;;
12248;SDS011;6187;50.778;6.142;2023-10-19T12:12:52;1.33;;;0.67;;
12248;SDS011;6187;50.778;6.142;2023-10-19T12:15:29;1.73;;;0.90;;
12248;SDS011;6187;50.778;6.142;2023-10-19T12:17:58;1.03;;;0.93;;
12248;SDS011;6187;50.778;6.142;2023-10-19T12:20:28;1.50;;;0.90;;
12248;SDS011;6187;50.778;6.142;2023-10-19T12:22:58;2.50;;;1.00;;
12248;SDS011;6187;50.778;6.142;2023-10-19T12:25:29;3.23;;;1.00;;
12248;SDS011;6187;50.778;6.142;2023-10-19T12:28:15;2.34;;;1.20;;
12248;SDS011;6187;50.778;6.142;2023-10-19T12:30:44;1.73;;;0.83;;
12248;SDS011;6187;50.778;6.142;2023-10-19T12:33:13;1.80;;;0.93;;
12248;SDS011;6187;50.778;6.142;2023-10-19T12:35:42;1.70;;;0.83;;
12248;SDS011;6187;50.778;6.142;2023-10-19T12:38:18;2.80;;;0.97;;
12248;SDS011;6187;50.778;6.142;2023-10-19T12:40:49;1.63;;;0.87;;
12248;SDS011;6187;50.778;6.142;2023-10-19T12:43:18;1.67;;;0.80;;
12248;SDS011;6187;50.778;6.142;2023-10-19T12:45:48;1.20;;;0.90;;
12248;SDS011;6187;50.778;6.142;2023-10-19T12:48:21;1.43;;;0.80;;
12248;SDS011;6187;50.778;6.142;2023-10-19T12:50:52;1.60;;;0.90;;
12248;SDS011;6187;50.778;6.142;2023-10-19T12:53:21;1.20;;;0.93;;
12248;SDS011;6187;50.778;6.142;2023-10-19T12:55:53;1.90;;;1.00;;
12248;SDS011;6187;50.778;6.142;2023-10-19T12:58:21;1.77;;;0.80;;
12248;SDS011;6187;50.778;6.142;2023-10-19T13:00:50;2.17;;;1.00;;
12248;SDS011;6187;50.778;6.142;2023-10-19T13:03:21;2.40;;;1.10;;
12248;SDS011;6187;50.778;6.142;2023-10-19T13:05:50;1.20;;;1.10;;
12248;SDS011;6187;50.778;6.142;2023-10-19T13:08:19;1.90;;;1.20;;
12248;SDS011;6187;50.778;6.142;2023-10-19T13:10:48;2.60;;;1.20;;
12248;SDS011;6187;50.778;6.142;2023-10-19T13:13:20;0.97;;;0.87;;
12248;SDS011;6187;50.778;6.142;2023-10-19T13:15:50;1.93;;;1.10;;
12248;SDS011;6187;50.778;6.142;2023-10-19T13:18:20;1.17;;;0.97;;
12248;SDS011;6187;50.778;6.142;2023-10-19T13:20:54;1.13;;;0.90;;
12248;SDS011;6187;50.778;6.142;2023-10-19T13:23:23;1.37;;;1.10;;
12248;SDS011;6187;50.778;6.142;2023-10-19T13:25:52;1.20;;;1.10;;
12248;SDS011;6187;50.778;6.142;2023-10-19T13:28:25;1.33;;;1.10;;
12248;SDS011;6187;50.778;6.142;2023-10-19T13:30:54;1.93;;;1.20;;
12248;SDS011;6187;50.778;6.142;2023-10-19T13:33:23;1.47;;;1.00;;
12248;SDS011;6187;50.778;6.142;2023-10-19T13:35:51;2.13;;;1.20;;
12248;SDS011;6187;50.778;6.142;2023-10-19T13:38:20;1.23;;;1.10;;
12248;SDS011;6187;50.778;6.142;2023-10-19T13:40:49;1.63;;;1.10;;
12248;SDS011;6187;50.778;6.142;2023-10-19T13:43:18;1.50;;;1.33;;
12248;SDS011;6187;50.778;6.142;2023-10-19T13:45:48;1.40;;;1.30;;
12248;SDS011;6187;50.778;6.142;2023-10-19T13:48:19;2.10;;;1.20;;
12248;SDS011;6187;50.778;6.142;2023-10-19T13:50:48;2.07;;;1.00;;
12248;SDS011;6187;50.778;6.142;2023-10-19T13:53:19;2.67;;;1.10;;
12248;SDS011;6187;50.778;6.142;2023-10-19T13:55:48;1.30;;;1.20;;
12248;SDS011;6187;50.778;6.142;2023-10-19T13:58:16;1.83;;;1.60;;
12248;SDS011;6187;50.778;6.142;2023-10-19T14:00:45;1.57;;;1.17;;
12248;SDS011;6187;50.778;6.142;2023-10-19T14:03:17;3.23;;;1.40;;
12248;SDS011;6187;50.778;6.142;2023-10-19T14:05:48;1.77;;;1.37;;
12248;SDS011;6187;50.778;6.142;2023-10-19T14:08:17;2.47;;;1.30;;
12248;SDS011;6187;50.778;6.142;2023-10-19T14:10:47;1.50;;;1.40;;
12248;SDS011;6187;50.778;6.142;2023-10-19T14:13:15;1.83;;;1.50;;
12248;SDS011;6187;50.778;6.142;2023-10-19T14:15:44;2.60;;;1.30;;
12248;SDS011;6187;50.778;6.142;2023-10-19T14:18:12;2.57;;;1.67;;
12248;SDS011;6187;50.778;6.142;2023-10-19T14:20:43;1.53;;;1.10;;
12248;SDS011;6187;50.778;6.142;2023-10-19T14:23:12;3.33;;;1.33;;
12248;SDS011;6187;50.778;6.142;2023-10-19T14:25:41;1.40;;;1.30;;
12248;SDS011;6187;50.778;6.142;2023-10-19T14:28:11;1.40;;;1.10;;
12248;SDS011;6187;50.778;6.142;2023-10-19T14:30:39;2.43;;;1.23;;
12248;SDS011;6187;50.778;6.142;2023-10-19T14:33:08;1.50;;;1.20;;
12248;SDS011;6187;50.778;6.142;2023-10-19T14:35:38;1.80;;;1.17;;
12248;SDS011;6187;50.778;6.142;2023-10-19T14:38:10;2.03;;;1.20;;
12248;SDS011;6187;50.778;6.142;2023-10-19T14:40:41;2.37;;;1.27;;
12248;SDS011;6187;50.778;6.142;2023-10-19T14:43:11;1.50;;;1.13;;
12248;SDS011;6187;50.778;6.142;2023-10-19T14:45:40;1.53;;;1.30;;
12248;SDS011;6187;50.778;6.142;2023-10-19T14:48:10;1.63;;;1.20;;
12248;SDS011;6187;50.778;6.142;2023-10-19T14:50:39;2.07;;;1.20;;
12248;SDS011;6187;50.778;6.142;2023-10-19T14:53:10;1.60;;;1.50;;
12248;SDS011;6187;50.778;6.142;2023-10-19T14:55:39;2.27;;;1.27;;
12248;SDS011;6187;50.778;6.142;2023-10-19T14:58:08;1.57;;;1.37;;
12248;SDS011;6187;50.778;6.142;2023-10-19T15:00:36;1.20;;;1.00;;
12248;SDS011;6187;50.778;6.142;2023-10-19T15:03:09;2.20;;;1.77;;
12248;SDS011;6187;50.778;6.142;2023-10-19T15:05:38;1.73;;;1.37;;
12248;SDS011;6187;50.778;6.142;2023-10-19T15:08:07;2.00;;;1.33;;
12248;SDS011;6187;50.778;6.142;2023-10-19T15:10:41;1.97;;;1.40;;
12248;SDS011;6187;50.778;6.142;2023-10-19T15:13:09;1.40;;;1.30;;
12248;SDS011;6187;50.778;6.142;2023-10-19T15:15:38;1.40;;;1.30;;
12248;SDS011;6187;50.778;6.142;2023-10-19T15:18:07;1.30;;;1.20;;
12248;SDS011;6187;50.778;6.142;2023-10-19T15:20:35;1.60;;;1.40;;
12248;SDS011;6187;50.778;6.142;2023-10-19T15:23:04;1.20;;;1.10;;